Time,TemperatureF,DewpointF,PressureIn,WindDirection,WindDirectionDegrees,WindSpeedMPH,WindSpeedGustMPH,Humidity,HourlyPrecipIn,Conditions,Clouds,dailyrainin,SoftwareType,DateUTC
2013-12-20 00:05:00,52.2,51.1,30.14,East,81,0.0,0.0,96,0.00,,,0.00,Wunderground v.1.15,2013-12-20 05:05:00,
2013-12-20 00:10:00,52.2,51.1,30.14,East,81,0.0,0.0,96,0.00,,,0.00,Wunderground v.1.15,2013-12-20 05:10:00,
2013-12-20 00:20:00,52.2,51.4,30.13,East,81,0.0,0.0,97,0.00,,,0.00,Wunderground v.1.15,2013-12-20 05:20:00,
2013-12-20 00:25:00,52.2,51.4,30.13,East,81,0.0,0.0,97,0.00,,,0.00,Wunderground v.1.15,2013-12-20 05:25:00,
2013-12-20 00:30:00,52.0,51.2,30.13,East,81,0.0,0.0,97,0.00,,,0.00,Wunderground v.1.15,2013-12-20 05:30:00,
2013-12-20 00:40:00,51.9,51.1,30.13,East,81,0.0,0.0,97,0.00,,,0.00,Wunderground v.1.15,2013-12-20 05:40:00,
2013-12-20 00:50:00,51.7,50.9,30.12,East,81,0.0,0.0,97,0.00,,,0.00,Wunderground v.1.15,2013-12-20 05:50:00,
2013-12-20 01:00:00,51.4,50.6,30.12,East,81,0.0,0.0,97,0.00,,,0.00,Wunderground v.1.15,2013-12-20 06:00:00,
2013-12-20 01:05:00,51.3,50.5,30.12,East,81,0.0,0.0,97,0.00,,,0.00,Wunderground v.1.15,2013-12-20 06:05:00,
2013-12-20 01:15:00,51.0,50.2,30.12,East,81,0.0,0.0,97,0.00,,,0.00,Wunderground v.1.15,2013-12-20 06:15:00,
2013-12-20 01:20:00,51.0,50.2,30.11,East,81,0.0,0.0,97,0.00,,,0.00,Wunderground v.1.15,2013-12-20 06:20:00,
2013-12-20 01:25:00,50.8,50.0,30.11,East,81,0.0,0.0,97,0.00,,,0.00,Wunderground v.1.15,2013-12-20 06:25:00,
2013-12-20 01:35:00,50.5,49.7,30.11,East,81,0.0,0.0,97,0.00,,,0.00,Wunderground v.1.15,2013-12-20 06:35:00,
2013-12-20 01:40:00,50.5,49.7,30.11,East,81,0.0,0.0,97,0.00,,,0.00,Wunderground v.1.15,2013-12-20 06:40:00,
2013-12-20 01:45:00,50.4,49.6,30.11,East,81,0.0,0.0,97,0.00,,,0.00,Wunderground v.1.15,2013-12-20 06:45:00,
2013-12-20 01:55:00,50.2,49.4,30.11,East,81,0.0,0.0,97,0.00,,,0.00,Wunderground v.1.15,2013-12-20 06:55:00,
2013-12-20 02:00:00,50.1,49.3,30.11,East,81,0.0,0.0,97,0.00,,,0.00,Wunderground v.1.15,2013-12-20 07:00:00,
2013-12-20 02:05:00,50.1,49.3,30.11,East,81,0.0,0.0,97,0.00,,,0.00,Wunderground v.1.15,2013-12-20 07:05:00,
2013-12-20 02:15:00,49.8,49.0,30.11,East,81,0.0,0.0,97,0.00,,,0.00,Wunderground v.1.15,2013-12-20 07:15:00,
2013-12-20 02:25:00,49.6,48.8,30.11,East,81,0.0,0.0,97,0.00,,,0.00,Wunderground v.1.15,2013-12-20 07:25:00,
2013-12-20 02:30:00,49.6,48.8,30.11,East,81,0.0,0.0,97,0.00,,,0.00,Wunderground v.1.15,2013-12-20 07:30:00,
2013-12-20 02:40:00,49.6,48.8,30.11,East,81,0.0,0.0,97,0.00,,,0.00,Wunderground v.1.15,2013-12-20 07:40:00,
2013-12-20 02:50:00,49.5,48.7,30.10,East,81,0.0,0.0,97,0.00,,,0.00,Wunderground v.1.15,2013-12-20 07:50:00,
2013-12-20 03:00:00,49.4,48.6,30.10,East,81,0.0,0.0,97,0.00,,,0.00,Wunderground v.1.15,2013-12-20 08:00:00,
2013-12-20 03:05:00,49.2,48.4,30.11,East,81,0.0,0.0,97,0.00,,,0.00,Wunderground v.1.15,2013-12-20 08:05:00,
2013-12-20 03:15:00,49.2,48.4,30.11,East,81,0.0,0.0,97,0.00,,,0.00,Wunderground v.1.15,2013-12-20 08:15:00,
2013-12-20 03:20:00,49.2,48.4,30.11,East,81,0.0,0.0,97,0.00,,,0.00,Wunderground v.1.15,2013-12-20 08:20:00,
2013-12-20 03:30:00,49.4,48.6,30.11,East,81,0.0,0.0,97,0.00,,,0.00,Wunderground v.1.15,2013-12-20 08:30:00,
2013-12-20 03:40:00,49.4,48.6,30.11,East,81,0.0,0.0,97,0.00,,,0.00,Wunderground v.1.15,2013-12-20 08:40:00,
2013-12-20 03:45:00,49.4,48.6,30.11,East,81,0.0,0.0,97,0.00,,,0.00,Wunderground v.1.15,2013-12-20 08:45:00,
2013-12-20 03:55:00,49.2,48.4,30.11,East,81,0.0,0.0,97,0.00,,,0.00,Wunderground v.1.15,2013-12-20 08:55:00,
2013-12-20 04:05:00,49.1,48.3,30.10,East,81,0.0,0.0,97,0.00,,,0.00,Wunderground v.1.15,2013-12-20 09:05:00,
2013-12-20 04:15:00,48.9,48.1,30.10,East,81,0.0,0.0,97,0.00,,,0.00,Wunderground v.1.15,2013-12-20 09:15:00,
2013-12-20 04:25:00,48.8,48.0,30.10,East,81,0.0,0.0,97,0.00,,,0.00,Wunderground v.1.15,2013-12-20 09:25:00,
2013-12-20 04:35:00,48.6,47.8,30.10,East,81,0.0,0.0,97,0.00,,,0.00,Wunderground v.1.15,2013-12-20 09:35:00,
2013-12-20 04:40:00,48.6,47.8,30.10,East,81,0.0,0.0,97,0.00,,,0.00,Wunderground v.1.15,2013-12-20 09:40:00,
2013-12-20 04:50:00,48.5,47.7,30.10,East,81,0.0,0.0,97,0.00,,,0.00,Wunderground v.1.15,2013-12-20 09:50:00,
2013-12-20 05:00:00,48.5,47.7,30.10,East,81,0.0,0.0,97,0.00,,,0.00,Wunderground v.1.15,2013-12-20 10:00:00,
2013-12-20 05:05:00,48.6,47.8,30.11,East,81,0.0,0.0,97,0.00,,,0.00,Wunderground v.1.15,2013-12-20 10:05:00,
2013-12-20 05:15:00,48.6,47.8,30.11,East,81,0.0,0.0,97,0.00,,,0.00,Wunderground v.1.15,2013-12-20 10:15:00,
2013-12-20 05:20:00,48.6,47.8,30.11,East,81,0.0,0.0,97,0.00,,,0.00,Wunderground v.1.15,2013-12-20 10:20:00,
2013-12-20 05:30:00,48.6,47.8,30.11,East,81,0.0,0.0,97,0.00,,,0.00,Wunderground v.1.15,2013-12-20 10:30:00,
2013-12-20 05:40:00,48.5,47.7,30.11,East,81,0.0,0.0,97,0.00,,,0.00,Wunderground v.1.15,2013-12-20 10:40:00,
2013-12-20 05:50:00,48.3,47.5,30.12,East,81,0.0,0.0,97,0.00,,,0.00,Wunderground v.1.15,2013-12-20 10:50:00,
2013-12-20 05:55:00,48.3,47.5,30.12,East,81,0.0,0.0,97,0.00,,,0.00,Wunderground v.1.15,2013-12-20 10:55:00,
2013-12-20 06:10:00,48.2,47.4,30.12,East,81,0.0,0.0,97,0.00,,,0.00,Wunderground v.1.15,2013-12-20 11:10:00,
2013-12-20 06:15:00,48.2,47.4,30.12,East,81,0.0,0.0,97,0.00,,,0.00,Wunderground v.1.15,2013-12-20 11:15:00,
2013-12-20 06:20:00,48.2,47.4,30.12,East,81,0.0,0.0,97,0.00,,,0.00,Wunderground v.1.15,2013-12-20 11:20:00,
2013-12-20 06:30:00,48.2,47.4,30.12,East,81,0.0,0.0,97,0.00,,,0.00,Wunderground v.1.15,2013-12-20 11:30:00,
2013-12-20 06:40:00,48.3,47.8,30.13,East,81,0.0,0.0,98,0.00,,,0.00,Wunderground v.1.15,2013-12-20 11:40:00,
2013-12-20 06:45:00,48.5,48.0,30.13,East,81,0.0,0.0,98,0.00,,,0.00,Wunderground v.1.15,2013-12-20 11:45:00,
2013-12-20 06:55:00,48.5,48.0,30.14,East,81,0.0,0.0,98,0.00,,,0.00,Wunderground v.1.15,2013-12-20 11:55:00,
2013-12-20 07:05:00,48.3,47.5,30.14,East,81,0.0,0.0,97,0.00,,,0.00,Wunderground v.1.15,2013-12-20 12:05:00,
2013-12-20 07:15:00,48.2,47.4,30.14,East,81,0.0,0.0,97,0.00,,,0.00,Wunderground v.1.15,2013-12-20 12:15:00,
2013-12-20 07:20:00,48.3,47.8,30.14,East,81,0.0,0.0,98,0.00,,,0.00,Wunderground v.1.15,2013-12-20 12:20:00,
2013-12-20 07:25:00,48.3,47.8,30.14,East,81,0.0,0.0,98,0.00,,,0.00,Wunderground v.1.15,2013-12-20 12:25:00,
2013-12-20 07:35:00,48.6,48.1,30.14,East,81,0.0,0.0,98,0.00,,,0.00,Wunderground v.1.15,2013-12-20 12:35:00,
2013-12-20 07:45:00,48.9,48.4,30.14,East,81,0.0,0.0,98,0.00,,,0.00,Wunderground v.1.15,2013-12-20 12:45:00,
2013-12-20 07:55:00,49.4,48.9,30.14,East,81,0.0,0.0,98,0.00,,,0.00,Wunderground v.1.15,2013-12-20 12:55:00,
2013-12-20 08:00:00,49.6,49.1,30.14,East,81,0.0,0.0,98,0.00,,,0.00,Wunderground v.1.15,2013-12-20 13:00:00,
2013-12-20 08:05:00,50.1,49.6,30.14,East,81,0.0,0.0,98,0.00,,,0.00,Wunderground v.1.15,2013-12-20 13:05:00,
2013-12-20 08:15:00,50.7,50.2,30.14,East,81,0.0,0.0,98,0.00,,,0.00,Wunderground v.1.15,2013-12-20 13:15:00,
2013-12-20 08:20:00,51.1,50.6,30.14,East,81,0.0,0.0,98,0.00,,,0.00,Wunderground v.1.15,2013-12-20 13:20:00,
2013-12-20 08:30:00,51.7,51.2,30.14,East,81,0.0,0.0,98,0.00,,,0.00,Wunderground v.1.15,2013-12-20 13:30:00,
2013-12-20 08:40:00,52.3,51.8,30.14,East,81,0.0,0.0,98,0.00,,,0.00,Wunderground v.1.15,2013-12-20 13:40:00,
2013-12-20 08:50:00,53.2,52.7,30.15,East,81,0.0,0.0,98,0.00,,,0.00,Wunderground v.1.15,2013-12-20 13:50:00,
2013-12-20 08:55:00,53.9,53.3,30.15,East,81,0.0,0.0,98,0.00,,,0.00,Wunderground v.1.15,2013-12-20 13:55:00,
2013-12-20 09:05:00,56.2,55.9,30.15,East,81,0.0,0.0,99,0.00,,,0.00,Wunderground v.1.15,2013-12-20 14:05:00,
2013-12-20 09:15:00,57.0,56.7,30.15,East,81,0.0,0.0,99,0.00,,,0.00,Wunderground v.1.15,2013-12-20 14:15:00,
2013-12-20 09:20:00,57.5,57.2,30.15,East,81,0.0,0.0,99,0.00,,,0.00,Wunderground v.1.15,2013-12-20 14:20:00,
2013-12-20 09:25:00,57.8,57.5,30.15,East,81,0.0,0.0,99,0.00,,,0.00,Wunderground v.1.15,2013-12-20 14:25:00,
2013-12-20 09:35:00,58.9,58.6,30.15,East,81,0.0,0.0,99,0.00,,,0.00,Wunderground v.1.15,2013-12-20 14:35:00,
2013-12-20 09:45:00,60.4,59.8,30.15,East,81,0.0,0.0,98,0.00,,,0.00,Wunderground v.1.15,2013-12-20 14:45:00,
2013-12-20 09:55:00,61.6,60.7,30.14,East,81,0.0,0.0,97,0.00,,,0.00,Wunderground v.1.15,2013-12-20 14:55:00,
2013-12-20 10:00:00,62.1,60.9,30.14,East,81,0.0,0.0,96,0.00,,,0.00,Wunderground v.1.15,2013-12-20 15:00:00,
2013-12-20 10:05:00,62.7,61.2,30.14,East,81,0.0,0.0,95,0.00,,,0.00,Wunderground v.1.15,2013-12-20 15:05:00,
2013-12-20 10:15:00,64.7,60.7,30.14,ESE,102,0.0,0.0,87,0.00,,,0.00,Wunderground v.1.15,2013-12-20 15:15:00,
2013-12-20 10:20:00,65.2,60.9,30.14,ESE,102,0.0,0.0,86,0.00,,,0.00,Wunderground v.1.15,2013-12-20 15:20:00,
2013-12-20 10:30:00,66.4,60.4,30.14,East,99,0.0,0.0,81,0.00,,,0.00,Wunderground v.1.15,2013-12-20 15:30:00,
2013-12-20 10:40:00,66.9,60.9,30.14,East,99,0.0,0.0,81,0.00,,,0.00,Wunderground v.1.15,2013-12-20 15:40:00,
2013-12-20 10:50:00,68.6,60.7,30.14,East,89,0.0,0.0,76,0.00,,,0.00,Wunderground v.1.15,2013-12-20 15:50:00,
2013-12-20 10:55:00,69.6,61.3,30.14,ESE,110,0.0,0.0,75,0.00,,,0.00,Wunderground v.1.15,2013-12-20 15:55:00,
2013-12-20 11:05:00,70.6,61.9,30.13,ESE,107,0.0,0.0,74,0.00,,,0.00,Wunderground v.1.15,2013-12-20 16:05:00,
2013-12-20 11:15:00,71.5,61.2,30.13,ESE,115,0.0,0.0,70,0.00,,,0.00,Wunderground v.1.15,2013-12-20 16:15:00,
2013-12-20 11:25:00,72.0,60.4,30.12,East,88,0.0,0.0,67,0.00,,,0.00,Wunderground v.1.15,2013-12-20 16:25:00,
2013-12-20 11:35:00,72.7,60.3,30.11,ESE,103,0.0,0.0,65,0.00,,,0.00,Wunderground v.1.15,2013-12-20 16:35:00,
2013-12-20 11:45:00,73.0,60.1,30.11,East,98,0.0,0.0,64,0.00,,,0.00,Wunderground v.1.15,2013-12-20 16:45:00,
2013-12-20 11:50:00,73.3,61.3,30.10,East,101,0.0,0.0,66,0.00,,,0.00,Wunderground v.1.15,2013-12-20 16:50:00,
2013-12-20 12:00:00,74.0,61.0,30.10,West,269,0.0,1.0,64,0.00,,,0.00,Wunderground v.1.15,2013-12-20 17:00:00,
2013-12-20 12:05:00,74.0,60.2,30.10,SW,218,0.0,1.0,62,0.00,,,0.00,Wunderground v.1.15,2013-12-20 17:05:00,
2013-12-20 12:15:00,74.2,60.3,30.10,ESE,120,0.0,0.0,62,0.00,,,0.00,Wunderground v.1.15,2013-12-20 17:15:00,
2013-12-20 12:25:00,74.9,61.0,30.09,ESE,120,0.0,0.0,62,0.00,,,0.00,Wunderground v.1.15,2013-12-20 17:25:00,
2013-12-20 12:30:00,75.3,60.9,30.09,ESE,120,0.0,0.0,61,0.00,,,0.00,Wunderground v.1.15,2013-12-20 17:30:00,
2013-12-20 12:40:00,76.1,60.2,30.09,East,90,0.0,0.0,58,0.00,,,0.00,Wunderground v.1.15,2013-12-20 17:40:00,
2013-12-20 12:50:00,76.3,59.4,30.08,ESE,117,0.0,0.0,56,0.00,,,0.00,Wunderground v.1.15,2013-12-20 17:50:00,
2013-12-20 13:00:00,76.7,60.3,30.08,East,101,0.0,1.0,57,0.00,,,0.00,Wunderground v.1.15,2013-12-20 18:00:00,
2013-12-20 13:05:00,76.8,59.9,30.07,ESE,116,0.0,3.0,56,0.00,,,0.00,Wunderground v.1.15,2013-12-20 18:05:00,
2013-12-20 13:15:00,77.2,60.8,30.07,ESE,104,1.0,1.0,57,0.00,,,0.00,Wunderground v.1.15,2013-12-20 18:15:00,
2013-12-20 13:20:00,77.7,60.8,30.07,ESE,106,0.0,1.0,56,0.00,,,0.00,Wunderground v.1.15,2013-12-20 18:20:00,
2013-12-20 13:30:00,78.5,60.5,30.07,ESE,103,1.0,1.0,54,0.00,,,0.00,Wunderground v.1.15,2013-12-20 18:30:00,
2013-12-20 13:40:00,79.2,61.1,30.06,ESE,103,0.0,0.0,54,0.00,,,0.00,Wunderground v.1.15,2013-12-20 18:40:00,
2013-12-20 13:45:00,79.4,61.3,30.06,SW,221,0.0,1.0,54,0.00,,,0.00,Wunderground v.1.15,2013-12-20 18:45:00,
2013-12-20 13:55:00,79.8,61.7,30.06,SW,221,0.0,0.0,54,0.00,,,0.00,Wunderground v.1.15,2013-12-20 18:55:00,
2013-12-20 14:05:00,80.1,61.4,30.05,WSW,254,0.0,0.0,53,0.00,,,0.00,Wunderground v.1.15,2013-12-20 19:05:00,
2013-12-20 14:15:00,80.9,61.1,30.05,WSW,254,0.0,0.0,51,0.00,,,0.00,Wunderground v.1.15,2013-12-20 19:15:00,
2013-12-20 14:25:00,80.5,62.3,30.05,ESE,122,0.0,0.0,54,0.00,,,0.00,Wunderground v.1.15,2013-12-20 19:25:00,
2013-12-20 14:35:00,80.3,60.5,30.04,ESE,115,0.0,3.0,51,0.00,,,0.00,Wunderground v.1.15,2013-12-20 19:35:00,
2013-12-20 14:40:00,79.9,60.7,30.04,ESE,106,0.0,0.0,52,0.00,,,0.00,Wunderground v.1.15,2013-12-20 19:40:00,
2013-12-20 14:50:00,79.4,60.8,30.04,East,100,0.0,0.0,53,0.00,,,0.00,Wunderground v.1.15,2013-12-20 19:50:00,
2013-12-20 14:55:00,79.2,61.1,30.04,East,100,0.0,0.0,54,0.00,,,0.00,Wunderground v.1.15,2013-12-20 19:55:00,
2013-12-20 15:00:00,79.0,59.9,30.04,East,100,0.0,0.0,52,0.00,,,0.00,Wunderground v.1.15,2013-12-20 20:00:00,
2013-12-20 15:05:00,79.2,61.1,30.04,ESE,118,0.0,1.0,54,0.00,,,0.00,Wunderground v.1.15,2013-12-20 20:05:00,
2013-12-20 15:15:00,79.4,61.3,30.04,ESE,118,0.0,0.0,54,0.00,,,0.00,Wunderground v.1.15,2013-12-20 20:15:00,
2013-12-20 15:20:00,79.2,60.6,30.04,ESE,118,0.0,0.0,53,0.00,,,0.00,Wunderground v.1.15,2013-12-20 20:20:00,
2013-12-20 15:25:00,79.0,60.9,30.04,ESE,118,0.0,0.0,54,0.00,,,0.00,Wunderground v.1.15,2013-12-20 20:25:00,
2013-12-20 15:35:00,78.8,61.3,30.05,ESE,118,0.0,0.0,55,0.00,,,0.00,Wunderground v.1.15,2013-12-20 20:35:00,
2013-12-20 15:40:00,79.0,60.4,30.05,ESE,118,0.0,0.0,53,0.00,,,0.00,Wunderground v.1.15,2013-12-20 20:40:00,
2013-12-20 15:50:00,78.8,59.7,30.05,East,88,0.0,0.0,52,0.00,,,0.00,Wunderground v.1.15,2013-12-20 20:50:00,
2013-12-20 16:00:00,78.3,61.3,30.05,East,88,0.0,0.0,56,0.00,,,0.00,Wunderground v.1.15,2013-12-20 21:00:00,
2013-12-20 16:05:00,78.3,60.8,30.06,East,88,0.0,0.0,55,0.00,,,0.00,Wunderground v.1.15,2013-12-20 21:05:00,
2013-12-20 16:15:00,77.9,60.4,30.06,East,88,0.0,0.0,55,0.00,,,0.00,Wunderground v.1.15,2013-12-20 21:15:00,
2013-12-20 16:20:00,77.7,61.3,30.06,East,88,0.0,0.0,57,0.00,,,0.00,Wunderground v.1.15,2013-12-20 21:20:00,
2013-12-20 16:30:00,77.0,61.1,30.06,East,88,0.0,0.0,58,0.00,,,0.00,Wunderground v.1.15,2013-12-20 21:30:00,
2013-12-20 16:35:00,76.7,60.8,30.05,East,88,0.0,0.0,58,0.00,,,0.00,Wunderground v.1.15,2013-12-20 21:35:00,
2013-12-20 16:40:00,76.5,60.6,30.05,East,88,0.0,0.0,58,0.00,,,0.00,Wunderground v.1.15,2013-12-20 21:40:00,
2013-12-20 16:50:00,76.3,61.9,30.06,East,88,0.0,0.0,61,0.00,,,0.00,Wunderground v.1.15,2013-12-20 21:50:00,
2013-12-20 16:55:00,76.1,62.1,30.06,East,88,0.0,0.0,62,0.00,,,0.00,Wunderground v.1.15,2013-12-20 21:55:00,
2013-12-20 17:05:00,75.4,61.5,30.06,East,88,0.0,0.0,62,0.00,,,0.00,Wunderground v.1.15,2013-12-20 22:05:00,
2013-12-20 17:15:00,74.7,62.1,30.06,East,88,0.0,0.0,65,0.00,,,0.00,Wunderground v.1.15,2013-12-20 22:15:00,
2013-12-20 17:20:00,74.2,62.1,30.06,East,88,0.0,0.0,66,0.00,,,0.00,Wunderground v.1.15,2013-12-20 22:20:00,
2013-12-20 17:25:00,73.9,62.2,30.06,East,88,0.0,0.0,67,0.00,,,0.00,Wunderground v.1.15,2013-12-20 22:25:00,
2013-12-20 17:35:00,73.2,62.4,30.07,East,88,0.0,0.0,69,0.00,,,0.00,Wunderground v.1.15,2013-12-20 22:35:00,
2013-12-20 17:40:00,72.8,62.8,30.07,East,88,0.0,0.0,71,0.00,,,0.00,Wunderground v.1.15,2013-12-20 22:40:00,
2013-12-20 17:50:00,72.0,62.5,30.07,East,88,0.0,0.0,72,0.00,,,0.00,Wunderground v.1.15,2013-12-20 22:50:00,
2013-12-20 17:55:00,71.6,63.3,30.07,East,88,0.0,0.0,75,0.00,,,0.00,Wunderground v.1.15,2013-12-20 22:55:00,
2013-12-20 18:00:00,71.3,62.6,30.07,East,88,0.0,0.0,74,0.00,,,0.00,Wunderground v.1.15,2013-12-20 23:00:00,
2013-12-20 18:05:00,70.9,62.2,30.07,East,88,0.0,0.0,74,0.00,,,0.00,Wunderground v.1.15,2013-12-20 23:05:00,
2013-12-20 18:15:00,70.4,62.1,30.07,East,88,0.0,0.0,75,0.00,,,0.00,Wunderground v.1.15,2013-12-20 23:15:00,
2013-12-20 18:20:00,70.1,61.8,30.08,East,88,0.0,0.0,75,0.00,,,0.00,Wunderground v.1.15,2013-12-20 23:20:00,
2013-12-20 18:30:00,69.8,61.9,30.08,East,88,0.0,0.0,76,0.00,,,0.00,Wunderground v.1.15,2013-12-20 23:30:00,
2013-12-20 18:35:00,69.4,61.9,30.08,East,88,0.0,0.0,77,0.00,,,0.00,Wunderground v.1.15,2013-12-20 23:35:00,
2013-12-20 18:40:00,69.3,62.1,30.08,East,88,0.0,0.0,78,0.00,,,0.00,Wunderground v.1.15,2013-12-20 23:40:00,
2013-12-20 18:50:00,68.8,62.0,30.08,East,88,0.0,0.0,79,0.00,,,0.00,Wunderground v.1.15,2013-12-20 23:50:00,
2013-12-20 18:55:00,68.6,62.2,30.08,East,88,0.0,0.0,80,0.00,,,0.00,Wunderground v.1.15,2013-12-20 23:55:00,
2013-12-20 19:05:00,68.1,62.4,30.08,East,88,0.0,0.0,82,0.00,,,0.00,Wunderground v.1.15,2013-12-21 00:05:00,
2013-12-20 19:15:00,67.6,61.9,30.08,East,88,0.0,0.0,82,0.00,,,0.00,Wunderground v.1.15,2013-12-21 00:15:00,
2013-12-20 19:20:00,67.3,62.0,30.08,East,88,0.0,0.0,83,0.00,,,0.00,Wunderground v.1.15,2013-12-21 00:20:00,
2013-12-20 19:31:00,66.8,62.1,30.08,East,88,0.0,0.0,85,0.00,,,0.00,Wunderground v.1.15,2013-12-21 00:31:00,
2013-12-20 19:40:00,66.3,61.7,30.09,East,88,0.0,0.0,85,0.00,,,0.00,Wunderground v.1.15,2013-12-21 00:40:00,
2013-12-20 19:45:00,66.1,61.5,30.09,East,88,0.0,0.0,85,0.00,,,0.00,Wunderground v.1.15,2013-12-21 00:45:00,
2013-12-20 19:55:00,66.1,61.1,30.09,East,88,0.0,0.0,84,0.00,,,0.00,Wunderground v.1.15,2013-12-21 00:55:00,
2013-12-20 20:00:00,66.1,61.1,30.09,East,88,0.0,0.0,84,0.00,,,0.00,Wunderground v.1.15,2013-12-21 01:00:00,
2013-12-20 20:05:00,66.0,61.0,30.09,East,88,0.0,0.0,84,0.00,,,0.00,Wunderground v.1.15,2013-12-21 01:05:00,
2013-12-20 20:15:00,66.0,61.0,30.09,East,88,0.0,0.0,84,0.00,,,0.00,Wunderground v.1.15,2013-12-21 01:15:00,
2013-12-20 20:20:00,66.0,61.0,30.09,East,88,0.0,0.0,84,0.00,,,0.00,Wunderground v.1.15,2013-12-21 01:20:00,
2013-12-20 20:25:00,65.8,60.8,30.09,East,88,0.0,0.0,84,0.00,,,0.00,Wunderground v.1.15,2013-12-21 01:25:00,
2013-12-20 20:35:00,65.8,60.8,30.09,East,88,0.0,0.0,84,0.00,,,0.00,Wunderground v.1.15,2013-12-21 01:35:00,
2013-12-20 20:40:00,66.3,61.0,30.09,East,88,0.0,0.0,83,0.00,,,0.00,Wunderground v.1.15,2013-12-21 01:40:00,
2013-12-20 20:50:00,66.9,60.5,30.09,East,88,0.0,0.0,80,0.00,,,0.00,Wunderground v.1.15,2013-12-21 01:50:00,
2013-12-20 20:55:00,66.9,60.5,30.09,East,88,0.0,0.0,80,0.00,,,0.00,Wunderground v.1.15,2013-12-21 01:55:00,
2013-12-20 21:05:00,66.9,60.5,30.09,East,88,0.0,0.0,80,0.00,,,0.00,Wunderground v.1.15,2013-12-21 02:05:00,
2013-12-20 21:15:00,66.9,60.5,30.09,East,88,0.0,0.0,80,0.00,,,0.00,Wunderground v.1.15,2013-12-21 02:15:00,
2013-12-20 21:20:00,67.1,60.4,30.09,East,88,0.0,0.0,79,0.00,,,0.00,Wunderground v.1.15,2013-12-21 02:20:00,
2013-12-20 21:30:00,67.1,60.4,30.09,East,88,0.0,0.0,79,0.00,,,0.00,Wunderground v.1.15,2013-12-21 02:30:00,
2013-12-20 21:35:00,67.1,60.0,30.09,East,88,0.0,0.0,78,0.00,,,0.00,Wunderground v.1.15,2013-12-21 02:35:00,
2013-12-20 21:45:00,66.8,60.1,30.09,East,88,0.0,0.0,79,0.00,,,0.00,Wunderground v.1.15,2013-12-21 02:45:00,
2013-12-20 21:50:00,66.4,60.0,30.09,East,88,0.0,0.0,80,0.00,,,0.00,Wunderground v.1.15,2013-12-21 02:50:00,
2013-12-20 22:00:00,66.0,59.7,30.09,East,88,0.0,0.0,80,0.00,,,0.00,Wunderground v.1.15,2013-12-21 03:00:00,
2013-12-20 22:05:00,65.8,59.8,30.09,East,88,0.0,0.0,81,0.00,,,0.00,Wunderground v.1.15,2013-12-21 03:05:00,
2013-12-20 22:15:00,65.5,59.5,30.09,East,88,0.0,0.0,81,0.00,,,0.00,Wunderground v.1.15,2013-12-21 03:15:00,
2013-12-20 22:25:00,65.2,59.6,30.09,East,88,0.0,0.0,82,0.00,,,0.00,Wunderground v.1.15,2013-12-21 03:25:00,
2013-12-20 22:35:00,64.7,59.4,30.09,East,88,0.0,0.0,83,0.00,,,0.00,Wunderground v.1.15,2013-12-21 03:35:00,
2013-12-20 22:40:00,64.5,59.6,30.09,East,88,0.0,0.0,84,0.00,,,0.00,Wunderground v.1.15,2013-12-21 03:40:00,
2013-12-20 22:50:00,64.2,59.6,30.09,East,88,0.0,0.0,85,0.00,,,0.00,Wunderground v.1.15,2013-12-21 03:50:00,
2013-12-20 23:00:00,63.7,59.4,30.09,East,88,0.0,0.0,86,0.00,,,0.00,Wunderground v.1.15,2013-12-21 04:00:00,
2013-12-20 23:05:00,63.5,59.2,30.08,East,88,0.0,0.0,86,0.00,,,0.00,Wunderground v.1.15,2013-12-21 04:05:00,
2013-12-20 23:15:00,63.2,59.3,30.08,East,88,0.0,0.0,87,0.00,,,0.00,Wunderground v.1.15,2013-12-21 04:15:00,
2013-12-20 23:20:00,63.1,59.2,30.08,East,88,0.0,0.0,87,0.00,,,0.00,Wunderground v.1.15,2013-12-21 04:20:00,
2013-12-20 23:30:00,62.9,59.3,30.08,East,88,0.0,0.0,88,0.00,,,0.00,Wunderground v.1.15,2013-12-21 04:30:00,
2013-12-20 23:40:00,62.6,59.6,30.08,East,88,0.0,0.0,90,0.00,,,0.00,Wunderground v.1.15,2013-12-21 04:40:00,
2013-12-20 23:50:00,62.4,59.4,30.08,East,88,0.0,0.0,90,0.00,,,0.00,Wunderground v.1.15,2013-12-21 04:50:00,